sensor_id;sensor_type;location;lat;lon;timestamp;P1;durP1;ratioP1;P2;durP2;ratioP2
67274;SDS011;55463;52.324;5.122;2023-04-25T00:01:00;18.67;;;3.92;;
67274;SDS011;55463;52.324;5.122;2023-04-25T00:03:27;23.83;;;3.75;;
67274;SDS011;55463;52.324;5.122;2023-04-25T00:05:54;20.15;;;3.97;;
67274;SDS011;55463;52.324;5.122;2023-04-25T00:08:21;29.50;;;5.35;;
67274;SDS011;55463;52.324;5.122;2023-04-25T00:10:47;20.40;;;3.78;;
67274;SDS011;55463;52.324;5.122;2023-04-25T00:13:13;16.65;;;3.45;;
67274;SDS011;55463;52.324;5.122;2023-04-25T00:15:42;11.32;;;3.58;;
67274;SDS011;55463;52.324;5.122;2023-04-25T00:18:07;14.38;;;3.00;;
67274;SDS011;55463;52.324;5.122;2023-04-25T00:20:34;23.63;;;4.00;;
67274;SDS011;55463;52.324;5.122;2023-04-25T00:23:00;20.77;;;3.30;;
67274;SDS011;55463;52.324;5.122;2023-04-25T00:25:25;16.50;;;3.47;;
67274;SDS011;55463;52.324;5.122;2023-04-25T00:27:51;23.65;;;4.13;;
67274;SDS011;55463;52.324;5.122;2023-04-25T00:30:16;12.98;;;3.10;;
67274;SDS011;55463;52.324;5.122;2023-04-25T00:32:42;14.82;;;3.10;;
67274;SDS011;55463;52.324;5.122;2023-04-25T00:35:08;18.73;;;2.88;;
67274;SDS011;55463;52.324;5.122;2023-04-25T00:37:34;13.30;;;3.95;;
67274;SDS011;55463;52.324;5.122;2023-04-25T00:40:00;21.20;;;3.13;;
67274;SDS011;55463;52.324;5.122;2023-04-25T00:42:25;14.05;;;3.00;;
67274;SDS011;55463;52.324;5.122;2023-04-25T00:44:51;13.15;;;3.15;;
67274;SDS011;55463;52.324;5.122;2023-04-25T00:47:17;13.80;;;2.97;;
67274;SDS011;55463;52.324;5.122;2023-04-25T00:49:43;14.65;;;3.22;;
67274;SDS011;55463;52.324;5.122;2023-04-25T00:52:08;20.45;;;3.05;;
67274;SDS011;55463;52.324;5.122;2023-04-25T00:54:35;19.27;;;2.90;;
67274;SDS011;55463;52.324;5.122;2023-04-25T00:57:00;20.08;;;3.10;;
67274;SDS011;55463;52.324;5.122;2023-04-25T00:59:26;13.93;;;3.47;;
67274;SDS011;55463;52.324;5.122;2023-04-25T01:01:53;12.50;;;2.78;;
67274;SDS011;55463;52.324;5.122;2023-04-25T01:04:18;12.95;;;2.97;;
67274;SDS011;55463;52.324;5.122;2023-04-25T01:06:44;21.85;;;2.97;;
67274;SDS011;55463;52.324;5.122;2023-04-25T01:09:10;22.70;;;3.45;;
67274;SDS011;55463;52.324;5.122;2023-04-25T01:11:35;15.10;;;3.00;;
67274;SDS011;55463;52.324;5.122;2023-04-25T01:14:01;15.63;;;2.85;;
67274;SDS011;55463;52.324;5.122;2023-04-25T01:16:27;21.63;;;3.47;;
67274;SDS011;55463;52.324;5.122;2023-04-25T01:18:52;18.30;;;2.95;;
67274;SDS011;55463;52.324;5.122;2023-04-25T01:21:20;13.13;;;2.88;;
67274;SDS011;55463;52.324;5.122;2023-04-25T01:23:45;16.60;;;3.05;;
67274;SDS011;55463;52.324;5.122;2023-04-25T01:26:11;14.77;;;3.50;;
67274;SDS011;55463;52.324;5.122;2023-04-25T01:28:37;15.75;;;2.60;;
67274;SDS011;55463;52.324;5.122;2023-04-25T01:31:06;18.30;;;3.05;;
67274;SDS011;55463;52.324;5.122;2023-04-25T01:33:31;19.70;;;3.35;;
67274;SDS011;55463;52.324;5.122;2023-04-25T01:35:57;16.52;;;3.25;;
67274;SDS011;55463;52.324;5.122;2023-04-25T01:38:22;18.83;;;2.88;;
67274;SDS011;55463;52.324;5.122;2023-04-25T01:40:48;20.40;;;3.97;;
67274;SDS011;55463;52.324;5.122;2023-04-25T01:43:15;17.90;;;3.10;;
67274;SDS011;55463;52.324;5.122;2023-04-25T01:45:41;17.55;;;2.63;;
67274;SDS011;55463;52.324;5.122;2023-04-25T01:48:07;9.35;;;2.75;;
67274;SDS011;55463;52.324;5.122;2023-04-25T01:50:34;15.20;;;3.15;;
67274;SDS011;55463;52.324;5.122;2023-04-25T01:52:59;13.52;;;3.47;;
67274;SDS011;55463;52.324;5.122;2023-04-25T01:55:26;16.70;;;3.97;;
67274;SDS011;55463;52.324;5.122;2023-04-25T01:57:52;10.73;;;2.92;;
67274;SDS011;55463;52.324;5.122;2023-04-25T02:00:17;11.02;;;2.30;;
67274;SDS011;55463;52.324;5.122;2023-04-25T02:02:43;22.08;;;3.65;;
67274;SDS011;55463;52.324;5.122;2023-04-25T02:05:08;22.70;;;3.40;;
67274;SDS011;55463;52.324;5.122;2023-04-25T02:07:34;19.23;;;3.53;;
67274;SDS011;55463;52.324;5.122;2023-04-25T02:09:59;14.70;;;3.15;;
67274;SDS011;55463;52.324;5.122;2023-04-25T02:12:25;17.25;;;2.78;;
67274;SDS011;55463;52.324;5.122;2023-04-25T02:14:51;11.60;;;3.22;;
67274;SDS011;55463;52.324;5.122;2023-04-25T02:17:16;20.10;;;3.00;;
67274;SDS011;55463;52.324;5.122;2023-04-25T02:19:42;12.38;;;3.53;;
67274;SDS011;55463;52.324;5.122;2023-04-25T02:22:08;19.90;;;3.05;;
67274;SDS011;55463;52.324;5.122;2023-04-25T02:24:33;16.58;;;3.05;;
67274;SDS011;55463;52.324;5.122;2023-04-25T02:26:59;25.33;;;3.22;;
67274;SDS011;55463;52.324;5.122;2023-04-25T02:29:25;22.33;;;2.97;;
67274;SDS011;55463;52.324;5.122;2023-04-25T02:31:51;21.95;;;4.00;;
67274;SDS011;55463;52.324;5.122;2023-04-25T02:34:16;15.45;;;3.10;;
67274;SDS011;55463;52.324;5.122;2023-04-25T02:36:41;14.13;;;2.65;;
67274;SDS011;55463;52.324;5.122;2023-04-25T02:39:07;15.48;;;2.92;;
67274;SDS011;55463;52.324;5.122;2023-04-25T02:41:32;16.40;;;2.95;;
67274;SDS011;55463;52.324;5.122;2023-04-25T02:43:57;22.15;;;3.88;;
67274;SDS011;55463;52.324;5.122;2023-04-25T02:46:23;12.45;;;2.35;;
67274;SDS011;55463;52.324;5.122;2023-04-25T02:48:48;21.83;;;3.15;;
67274;SDS011;55463;52.324;5.122;2023-04-25T02:51:13;15.73;;;2.65;;
67274;SDS011;55463;52.324;5.122;2023-04-25T02:53:41;9.20;;;2.63;;
67274;SDS011;55463;52.324;5.122;2023-04-25T02:56:06;13.27;;;3.38;;
67274;SDS011;55463;52.324;5.122;2023-04-25T02:58:32;13.35;;;2.80;;
67274;SDS011;55463;52.324;5.122;2023-04-25T03:00:57;18.83;;;2.63;;
67274;SDS011;55463;52.324;5.122;2023-04-25T03:03:22;10.82;;;2.60;;
67274;SDS011;55463;52.324;5.122;2023-04-25T03:05:51;16.70;;;2.85;;
67274;SDS011;55463;52.324;5.122;2023-04-25T03:08:17;15.80;;;3.28;;
67274;SDS011;55463;52.324;5.122;2023-04-25T03:10:43;9.00;;;2.35;;
67274;SDS011;55463;52.324;5.122;2023-04-25T03:13:09;13.77;;;2.53;;
67274;SDS011;55463;52.324;5.122;2023-04-25T03:15:35;12.18;;;2.65;;
67274;SDS011;55463;52.324;5.122;2023-04-25T03:18:00;15.05;;;3.60;;
67274;SDS011;55463;52.324;5.122;2023-04-25T03:20:26;13.25;;;3.05;;
67274;SDS011;55463;52.324;5.122;2023-04-25T03:22:51;7.30;;;2.28;;
67274;SDS011;55463;52.324;5.122;2023-04-25T03:25:17;10.48;;;2.13;;
67274;SDS011;55463;52.324;5.122;2023-04-25T03:27:42;9.68;;;2.13;;
67274;SDS011;55463;52.324;5.122;2023-04-25T03:30:07;13.80;;;2.45;;
67274;SDS011;55463;52.324;5.122;2023-04-25T03:32:33;11.23;;;2.40;;
67274;SDS011;55463;52.324;5.122;2023-04-25T03:34:59;15.82;;;2.15;;
67274;SDS011;55463;52.324;5.122;2023-04-25T03:37:25;12.18;;;2.85;;
67274;SDS011;55463;52.324;5.122;2023-04-25T03:39:50;14.55;;;2.63;;
67274;SDS011;55463;52.324;5.122;2023-04-25T03:42:15;11.13;;;2.30;;
67274;SDS011;55463;52.324;5.122;2023-04-25T03:44:41;12.98;;;2.42;;
67274;SDS011;55463;52.324;5.122;2023-04-25T03:47:06;17.67;;;2.90;;
67274;SDS011;55463;52.324;5.122;2023-04-25T03:49:32;11.63;;;2.22;;
67274;SDS011;55463;52.324;5.122;2023-04-25T03:51:59;7.53;;;2.40;;
67274;SDS011;55463;52.324;5.122;2023-04-25T03:54:25;13.40;;;2.05;;
67274;SDS011;55463;52.324;5.122;2023-04-25T03:56:50;15.52;;;3.13;;
67274;SDS011;55463;52.324;5.122;2023-04-25T03:59:15;10.40;;;2.05;;
67274;SDS011;55463;52.324;5.122;2023-04-25T04:01:41;8.30;;;2.00;;
67274;SDS011;55463;52.324;5.122;2023-04-25T04:04:06;6.97;;;2.00;;
67274;SDS011;55463;52.324;5.122;2023-04-25T04:06:31;11.70;;;1.98;;
67274;SDS011;55463;52.324;5.122;2023-04-25T04:08:57;7.47;;;1.90;;
67274;SDS011;55463;52.324;5.122;2023-04-25T04:11:22;8.80;;;2.08;;
67274;SDS011;55463;52.324;5.122;2023-04-25T04:13:51;7.38;;;1.95;;
67274;SDS011;55463;52.324;5.122;2023-04-25T04:16:16;5.45;;;1.85;;
67274;SDS011;55463;52.324;5.122;2023-04-25T04:18:42;11.90;;;3.00;;
67274;SDS011;55463;52.324;5.122;2023-04-25T04:21:07;7.28;;;2.22;;
67274;SDS011;55463;52.324;5.122;2023-04-25T04:23:32;9.63;;;2.55;;
67274;SDS011;55463;52.324;5.122;2023-04-25T04:25:58;14.07;;;1.88;;
67274;SDS011;55463;52.324;5.122;2023-04-25T04:28:24;13.65;;;2.75;;
67274;SDS011;55463;52.324;5.122;2023-04-25T04:30:50;6.13;;;1.95;;
67274;SDS011;55463;52.324;5.122;2023-04-25T04:33:17;11.38;;;2.28;;
67274;SDS011;55463;52.324;5.122;2023-04-25T04:35:46;10.13;;;2.17;;
67274;SDS011;55463;52.324;5.122;2023-04-25T04:38:12;7.13;;;2.08;;
67274;SDS011;55463;52.324;5.122;2023-04-25T04:40:40;4.97;;;2.20;;
67274;SDS011;55463;52.324;5.122;2023-04-25T04:43:06;6.57;;;2.00;;
67274;SDS011;55463;52.324;5.122;2023-04-25T04:45:33;14.20;;;1.95;;
67274;SDS011;55463;52.324;5.122;2023-04-25T04:47:59;6.60;;;1.73;;
67274;SDS011;55463;52.324;5.122;2023-04-25T04:50:24;7.70;;;1.77;;
67274;SDS011;55463;52.324;5.122;2023-04-25T04:52:51;8.30;;;1.80;;
67274;SDS011;55463;52.324;5.122;2023-04-25T04:55:17;5.55;;;1.55;;
67274;SDS011;55463;52.324;5.122;2023-04-25T04:57:42;8.68;;;1.95;;
67274;SDS011;55463;52.324;5.122;2023-04-25T05:00:08;8.65;;;2.72;;
67274;SDS011;55463;52.324;5.122;2023-04-25T05:02:37;10.15;;;2.45;;
67274;SDS011;55463;52.324;5.122;2023-04-25T05:05:03;10.35;;;2.17;;
67274;SDS011;55463;52.324;5.122;2023-04-25T05:07:30;8.82;;;2.15;;
67274;SDS011;55463;52.324;5.122;2023-04-25T05:09:55;12.25;;;2.85;;
67274;SDS011;55463;52.324;5.122;2023-04-25T05:12:21;11.88;;;2.30;;
67274;SDS011;55463;52.324;5.122;2023-04-25T05:14:46;11.50;;;3.00;;
67274;SDS011;55463;52.324;5.122;2023-04-25T05:17:12;9.10;;;2.17;;
67274;SDS011;55463;52.324;5.122;2023-04-25T05:19:37;11.13;;;2.50;;
67274;SDS011;55463;52.324;5.122;2023-04-25T05:22:04;11.63;;;2.10;;
67274;SDS011;55463;52.324;5.122;2023-04-25T05:24:30;14.00;;;2.10;;
67274;SDS011;55463;52.324;5.122;2023-04-25T05:26:56;12.38;;;2.50;;
67274;SDS011;55463;52.324;5.122;2023-04-25T05:29:21;11.27;;;2.17;;
67274;SDS011;55463;52.324;5.122;2023-04-25T05:31:46;10.27;;;2.33;;
67274;SDS011;55463;52.324;5.122;2023-04-25T05:34:13;16.23;;;2.30;;
67274;SDS011;55463;52.324;5.122;2023-04-25T05:36:38;13.65;;;2.50;;
67274;SDS011;55463;52.324;5.122;2023-04-25T05:39:03;14.27;;;3.33;;
67274;SDS011;55463;52.324;5.122;2023-04-25T05:41:29;12.98;;;2.78;;
67274;SDS011;55463;52.324;5.122;2023-04-25T05:43:55;19.10;;;2.70;;
67274;SDS011;55463;52.324;5.122;2023-04-25T05:46:20;12.50;;;2.55;;
67274;SDS011;55463;52.324;5.122;2023-04-25T05:48:45;7.65;;;2.05;;
67274;SDS011;55463;52.324;5.122;2023-04-25T05:51:11;10.43;;;2.00;;
67274;SDS011;55463;52.324;5.122;2023-04-25T05:53:36;3.90;;;1.63;;
67274;SDS011;55463;52.324;5.122;2023-04-25T05:56:01;8.65;;;2.35;;
67274;SDS011;55463;52.324;5.122;2023-04-25T05:58:27;12.70;;;2.55;;
67274;SDS011;55463;52.324;5.122;2023-04-25T06:00:53;12.23;;;2.20;;
67274;SDS011;55463;52.324;5.122;2023-04-25T06:03:19;8.02;;;1.90;;
67274;SDS011;55463;52.324;5.122;2023-04-25T06:05:45;6.18;;;1.77;;
67274;SDS011;55463;52.324;5.122;2023-04-25T06:08:10;6.90;;;2.58;;
67274;SDS011;55463;52.324;5.122;2023-04-25T06:10:36;9.52;;;2.10;;
67274;SDS011;55463;52.324;5.122;2023-04-25T06:13:02;8.93;;;2.13;;
67274;SDS011;55463;52.324;5.122;2023-04-25T06:15:27;6.97;;;2.08;;
67274;SDS011;55463;52.324;5.122;2023-04-25T06:17:53;8.07;;;2.13;;
67274;SDS011;55463;52.324;5.122;2023-04-25T06:20:18;14.13;;;2.10;;
67274;SDS011;55463;52.324;5.122;2023-04-25T06:22:47;12.55;;;2.35;;
67274;SDS011;55463;52.324;5.122;2023-04-25T06:25:13;13.38;;;2.50;;
67274;SDS011;55463;52.324;5.122;2023-04-25T06:27:39;11.23;;;2.30;;
67274;SDS011;55463;52.324;5.122;2023-04-25T06:30:04;10.85;;;2.65;;
67274;SDS011;55463;52.324;5.122;2023-04-25T06:32:30;14.55;;;2.58;;
67274;SDS011;55463;52.324;5.122;2023-04-25T06:34:55;11.05;;;2.78;;
67274;SDS011;55463;52.324;5.122;2023-04-25T06:37:21;18.23;;;2.50;;
67274;SDS011;55463;52.324;5.122;2023-04-25T06:39:46;12.90;;;2.42;;
67274;SDS011;55463;52.324;5.122;2023-04-25T06:42:12;9.43;;;1.83;;
67274;SDS011;55463;52.324;5.122;2023-04-25T06:44:40;15.07;;;2.35;;
67274;SDS011;55463;52.324;5.122;2023-04-25T06:47:05;9.18;;;2.35;;
67274;SDS011;55463;52.324;5.122;2023-04-25T06:49:31;12.05;;;2.33;;
67274;SDS011;55463;52.324;5.122;2023-04-25T06:51:56;10.38;;;2.45;;
67274;SDS011;55463;52.324;5.122;2023-04-25T06:54:21;11.02;;;2.25;;
67274;SDS011;55463;52.324;5.122;2023-04-25T06:56:47;10.80;;;2.17;;
67274;SDS011;55463;52.324;5.122;2023-04-25T06:59:12;15.32;;;2.42;;
67274;SDS011;55463;52.324;5.122;2023-04-25T07:01:38;15.80;;;3.60;;
67274;SDS011;55463;52.324;5.122;2023-04-25T07:04:06;10.93;;;2.40;;
67274;SDS011;55463;52.324;5.122;2023-04-25T07:06:32;15.18;;;2.42;;
67274;SDS011;55463;52.324;5.122;2023-04-25T07:08:57;12.50;;;2.35;;
67274;SDS011;55463;52.324;5.122;2023-04-25T07:11:22;10.98;;;2.40;;
67274;SDS011;55463;52.324;5.122;2023-04-25T07:13:48;7.75;;;2.20;;
67274;SDS011;55463;52.324;5.122;2023-04-25T07:16:13;10.00;;;2.45;;
67274;SDS011;55463;52.324;5.122;2023-04-25T07:18:42;15.05;;;2.42;;
67274;SDS011;55463;52.324;5.122;2023-04-25T07:21:07;9.50;;;2.13;;
67274;SDS011;55463;52.324;5.122;2023-04-25T07:23:32;9.90;;;2.30;;
67274;SDS011;55463;52.324;5.122;2023-04-25T07:25:58;18.10;;;2.63;;
67274;SDS011;55463;52.324;5.122;2023-04-25T07:28:23;16.00;;;2.67;;
67274;SDS011;55463;52.324;5.122;2023-04-25T07:30:49;10.88;;;1.88;;
67274;SDS011;55463;52.324;5.122;2023-04-25T07:33:14;13.60;;;2.25;;
67274;SDS011;55463;52.324;5.122;2023-04-25T07:35:43;3.95;;;1.67;;
67274;SDS011;55463;52.324;5.122;2023-04-25T07:38:11;10.77;;;2.10;;
67274;SDS011;55463;52.324;5.122;2023-04-25T07:40:36;12.85;;;2.10;;
67274;SDS011;55463;52.324;5.122;2023-04-25T07:43:02;12.68;;;2.17;;
67274;SDS011;55463;52.324;5.122;2023-04-25T07:45:27;13.77;;;2.20;;
67274;SDS011;55463;52.324;5.122;2023-04-25T07:47:52;11.93;;;2.00;;
67274;SDS011;55463;52.324;5.122;2023-04-25T07:50:18;7.35;;;2.20;;
67274;SDS011;55463;52.324;5.122;2023-04-25T07:52:43;8.20;;;1.80;;
67274;SDS011;55463;52.324;5.122;2023-04-25T07:55:08;12.70;;;2.40;;
67274;SDS011;55463;52.324;5.122;2023-04-25T07:57:34;13.70;;;1.85;;
67274;SDS011;55463;52.324;5.122;2023-04-25T07:59:59;8.30;;;1.90;;
67274;SDS011;55463;52.324;5.122;2023-04-25T08:02:25;11.70;;;1.90;;
67274;SDS011;55463;52.324;5.122;2023-04-25T08:04:53;9.50;;;1.90;;
67274;SDS011;55463;52.324;5.122;2023-04-25T08:07:18;13.85;;;2.30;;
67274;SDS011;55463;52.324;5.122;2023-04-25T08:09:44;11.38;;;2.15;;
67274;SDS011;55463;52.324;5.122;2023-04-25T08:12:10;6.90;;;1.88;;
67274;SDS011;55463;52.324;5.122;2023-04-25T08:14:35;9.70;;;1.92;;
67274;SDS011;55463;52.324;5.122;2023-04-25T08:17:02;7.40;;;2.00;;
67274;SDS011;55463;52.324;5.122;2023-04-25T08:19:30;6.05;;;1.50;;
67274;SDS011;55463;52.324;5.122;2023-04-25T08:21:58;4.55;;;1.42;;
67274;SDS011;55463;52.324;5.122;2023-04-25T08:24:24;9.15;;;1.73;;
67274;SDS011;55463;52.324;5.122;2023-04-25T08:26:49;7.20;;;1.90;;
67274;SDS011;55463;52.324;5.122;2023-04-25T08:29:19;7.88;;;1.67;;
67274;SDS011;55463;52.324;5.122;2023-04-25T08:31:44;9.52;;;2.47;;
67274;SDS011;55463;52.324;5.122;2023-04-25T08:34:11;4.32;;;1.70;;
67274;SDS011;55463;52.324;5.122;2023-04-25T08:36:37;9.10;;;2.20;;
67274;SDS011;55463;52.324;5.122;2023-04-25T08:39:02;9.88;;;2.60;;
67274;SDS011;55463;52.324;5.122;2023-04-25T08:41:28;4.93;;;2.10;;
67274;SDS011;55463;52.324;5.122;2023-04-25T08:43:53;6.45;;;1.95;;
67274;SDS011;55463;52.324;5.122;2023-04-25T08:46:21;17.30;;;2.00;;
67274;SDS011;55463;52.324;5.122;2023-04-25T08:48:48;7.78;;;1.83;;
67274;SDS011;55463;52.324;5.122;2023-04-25T08:51:24;6.43;;;1.60;;
67274;SDS011;55463;52.324;5.122;2023-04-25T08:53:53;10.10;;;1.70;;
67274;SDS011;55463;52.324;5.122;2023-04-25T08:56:18;8.43;;;1.90;;
67274;SDS011;55463;52.324;5.122;2023-04-25T08:58:50;9.85;;;2.13;;
67274;SDS011;55463;52.324;5.122;2023-04-25T09:01:16;6.75;;;1.65;;
67274;SDS011;55463;52.324;5.122;2023-04-25T09:03:42;6.40;;;1.65;;
67274;SDS011;55463;52.324;5.122;2023-04-25T09:06:10;7.68;;;1.77;;
67274;SDS011;55463;52.324;5.122;2023-04-25T09:08:36;4.40;;;1.42;;
67274;SDS011;55463;52.324;5.122;2023-04-25T09:11:02;4.68;;;1.48;;
67274;SDS011;55463;52.324;5.122;2023-04-25T09:13:28;5.30;;;1.23;;
67274;SDS011;55463;52.324;5.122;2023-04-25T09:15:55;9.93;;;1.92;;
67274;SDS011;55463;52.324;5.122;2023-04-25T09:18:25;6.60;;;1.70;;
67274;SDS011;55463;52.324;5.122;2023-04-25T09:20:52;5.90;;;1.75;;
67274;SDS011;55463;52.324;5.122;2023-04-25T09:23:19;4.63;;;1.80;;
67274;SDS011;55463;52.324;5.122;2023-04-25T09:25:48;5.75;;;1.67;;
67274;SDS011;55463;52.324;5.122;2023-04-25T09:28:14;4.60;;;1.58;;
67274;SDS011;55463;52.324;5.122;2023-04-25T09:30:39;6.63;;;1.60;;
67274;SDS011;55463;52.324;5.122;2023-04-25T09:33:05;8.63;;;1.63;;
67274;SDS011;55463;52.324;5.122;2023-04-25T09:35:42;9.95;;;1.80;;
67274;SDS011;55463;52.324;5.122;2023-04-25T09:38:12;7.30;;;2.25;;
67274;SDS011;55463;52.324;5.122;2023-04-25T09:40:44;8.65;;;2.00;;
67274;SDS011;55463;52.324;5.122;2023-04-25T09:43:18;8.32;;;2.10;;
67274;SDS011;55463;52.324;5.122;2023-04-25T09:45:43;7.63;;;1.80;;
67274;SDS011;55463;52.324;5.122;2023-04-25T09:48:10;6.70;;;1.80;;
67274;SDS011;55463;52.324;5.122;2023-04-25T09:50:36;5.53;;;1.77;;
67274;SDS011;55463;52.324;5.122;2023-04-25T09:53:05;4.10;;;1.60;;
67274;SDS011;55463;52.324;5.122;2023-04-25T09:55:31;4.10;;;1.55;;
67274;SDS011;55463;52.324;5.122;2023-04-25T09:58:00;14.15;;;2.13;;
67274;SDS011;55463;52.324;5.122;2023-04-25T10:00:30;8.02;;;1.55;;
67274;SDS011;55463;52.324;5.122;2023-04-25T10:02:57;5.88;;;1.77;;
67274;SDS011;55463;52.324;5.122;2023-04-25T10:05:25;8.50;;;2.03;;
67274;SDS011;55463;52.324;5.122;2023-04-25T10:07:54;5.97;;;1.70;;
67274;SDS011;55463;52.324;5.122;2023-04-25T10:10:21;6.90;;;1.77;;
67274;SDS011;55463;52.324;5.122;2023-04-25T10:12:50;5.90;;;1.40;;
67274;SDS011;55463;52.324;5.122;2023-04-25T10:15:16;9.13;;;1.63;;
67274;SDS011;55463;52.324;5.122;2023-04-25T10:17:44;6.47;;;1.60;;
67274;SDS011;55463;52.324;5.122;2023-04-25T10:20:10;4.82;;;1.45;;
67274;SDS011;55463;52.324;5.122;2023-04-25T10:22:41;4.32;;;1.50;;
67274;SDS011;55463;52.324;5.122;2023-04-25T10:25:09;4.53;;;1.75;;
67274;SDS011;55463;52.324;5.122;2023-04-25T10:27:36;7.28;;;1.67;;
67274;SDS011;55463;52.324;5.122;2023-04-25T10:30:03;6.03;;;1.77;;
67274;SDS011;55463;52.324;5.122;2023-04-25T10:32:35;5.38;;;1.70;;
67274;SDS011;55463;52.324;5.122;2023-04-25T10:40:23;6.15;;;1.52;;
67274;SDS011;55463;52.324;5.122;2023-04-25T10:42:48;3.35;;;1.38;;
67274;SDS011;55463;52.324;5.122;2023-04-25T10:45:14;1.75;;;1.40;;
67274;SDS011;55463;52.324;5.122;2023-04-25T10:47:45;3.78;;;1.40;;
67274;SDS011;55463;52.324;5.122;2023-04-25T10:50:11;6.63;;;1.60;;
67274;SDS011;55463;52.324;5.122;2023-04-25T10:52:39;4.28;;;1.40;;
67274;SDS011;55463;52.324;5.122;2023-04-25T10:55:07;5.90;;;1.67;;
67274;SDS011;55463;52.324;5.122;2023-04-25T10:57:45;7.78;;;1.45;;
67274;SDS011;55463;52.324;5.122;2023-04-25T11:00:13;10.02;;;1.50;;
67274;SDS011;55463;52.324;5.122;2023-04-25T11:02:41;6.10;;;1.73;;
67274;SDS011;55463;52.324;5.122;2023-04-25T11:05:07;8.82;;;1.67;;
67274;SDS011;55463;52.324;5.122;2023-04-25T11:07:37;5.28;;;1.80;;
67274;SDS011;55463;52.324;5.122;2023-04-25T11:10:15;4.80;;;1.40;;
67274;SDS011;55463;52.324;5.122;2023-04-25T11:12:41;6.78;;;1.65;;
67274;SDS011;55463;52.324;5.122;2023-04-25T11:15:06;6.00;;;1.65;;
67274;SDS011;55463;52.324;5.122;2023-04-25T11:17:33;4.30;;;1.48;;
67274;SDS011;55463;52.324;5.122;2023-04-25T11:19:59;9.00;;;1.60;;
67274;SDS011;55463;52.324;5.122;2023-04-25T11:22:26;7.20;;;1.77;;
67274;SDS011;55463;52.324;5.122;2023-04-25T11:24:52;10.57;;;1.98;;
67274;SDS011;55463;52.324;5.122;2023-04-25T11:27:18;5.75;;;1.85;;
67274;SDS011;55463;52.324;5.122;2023-04-25T11:29:43;5.00;;;1.48;;
67274;SDS011;55463;52.324;5.122;2023-04-25T11:32:09;8.32;;;2.00;;
67274;SDS011;55463;52.324;5.122;2023-04-25T11:34:34;9.07;;;1.90;;
67274;SDS011;55463;52.324;5.122;2023-04-25T11:37:00;8.90;;;2.22;;
67274;SDS011;55463;52.324;5.122;2023-04-25T11:39:27;8.05;;;1.63;;
67274;SDS011;55463;52.324;5.122;2023-04-25T11:41:53;9.30;;;1.90;;
67274;SDS011;55463;52.324;5.122;2023-04-25T11:44:19;6.65;;;1.73;;
67274;SDS011;55463;52.324;5.122;2023-04-25T11:46:45;7.20;;;1.90;;
67274;SDS011;55463;52.324;5.122;2023-04-25T11:49:12;8.73;;;1.63;;
67274;SDS011;55463;52.324;5.122;2023-04-25T11:51:44;7.45;;;1.92;;
67274;SDS011;55463;52.324;5.122;2023-04-25T11:54:11;9.40;;;1.98;;
67274;SDS011;55463;52.324;5.122;2023-04-25T11:56:37;6.68;;;1.50;;
67274;SDS011;55463;52.324;5.122;2023-04-25T11:59:05;6.15;;;1.67;;
67274;SDS011;55463;52.324;5.122;2023-04-25T12:01:35;4.22;;;1.58;;
67274;SDS011;55463;52.324;5.122;2023-04-25T12:04:11;7.45;;;1.77;;
67274;SDS011;55463;52.324;5.122;2023-04-25T12:06:39;6.25;;;1.60;;
67274;SDS011;55463;52.324;5.122;2023-04-25T12:09:07;8.65;;;1.80;;
67274;SDS011;55463;52.324;5.122;2023-04-25T12:11:40;7.45;;;1.85;;
67274;SDS011;55463;52.324;5.122;2023-04-25T12:14:12;6.32;;;1.60;;
67274;SDS011;55463;52.324;5.122;2023-04-25T12:16:49;4.47;;;1.55;;
67274;SDS011;55463;52.324;5.122;2023-04-25T12:19:16;9.43;;;1.75;;
67274;SDS011;55463;52.324;5.122;2023-04-25T12:21:43;7.05;;;1.75;;
67274;SDS011;55463;52.324;5.122;2023-04-25T12:24:16;8.10;;;2.00;;
67274;SDS011;55463;52.324;5.122;2023-04-25T12:29:30;3.58;;;1.35;;
67274;SDS011;55463;52.324;5.122;2023-04-25T12:31:58;7.35;;;1.48;;
67274;SDS011;55463;52.324;5.122;2023-04-25T12:34:24;2.15;;;1.30;;
67274;SDS011;55463;52.324;5.122;2023-04-25T12:36:51;7.95;;;1.70;;
67274;SDS011;55463;52.324;5.122;2023-04-25T12:39:23;6.55;;;1.65;;
67274;SDS011;55463;52.324;5.122;2023-04-25T12:41:52;4.00;;;1.60;;
67274;SDS011;55463;52.324;5.122;2023-04-25T12:44:21;6.13;;;1.40;;
67274;SDS011;55463;52.324;5.122;2023-04-25T12:46:46;5.72;;;1.70;;
67274;SDS011;55463;52.324;5.122;2023-04-25T12:49:12;11.27;;;2.00;;
67274;SDS011;55463;52.324;5.122;2023-04-25T12:51:38;5.60;;;1.70;;
67274;SDS011;55463;52.324;5.122;2023-04-25T12:54:04;9.25;;;2.38;;
67274;SDS011;55463;52.324;5.122;2023-04-25T12:56:32;7.20;;;2.05;;
67274;SDS011;55463;52.324;5.122;2023-04-25T12:58:57;7.45;;;1.77;;
67274;SDS011;55463;52.324;5.122;2023-04-25T13:01:23;5.28;;;1.58;;
67274;SDS011;55463;52.324;5.122;2023-04-25T13:03:49;6.28;;;1.80;;
67274;SDS011;55463;52.324;5.122;2023-04-25T13:06:15;5.07;;;1.85;;
67274;SDS011;55463;52.324;5.122;2023-04-25T13:08:41;9.82;;;2.05;;
67274;SDS011;55463;52.324;5.122;2023-04-25T13:11:07;4.22;;;2.03;;
67274;SDS011;55463;52.324;5.122;2023-04-25T13:13:33;9.85;;;1.77;;
67274;SDS011;55463;52.324;5.122;2023-04-25T13:16:02;5.68;;;1.85;;
67274;SDS011;55463;52.324;5.122;2023-04-25T13:18:29;6.18;;;1.80;;
67274;SDS011;55463;52.324;5.122;2023-04-25T13:20:55;6.60;;;1.70;;
67274;SDS011;55463;52.324;5.122;2023-04-25T13:23:21;5.35;;;1.77;;
67274;SDS011;55463;52.324;5.122;2023-04-25T13:25:47;7.85;;;2.03;;
67274;SDS011;55463;52.324;5.122;2023-04-25T13:28:13;4.45;;;2.28;;
67274;SDS011;55463;52.324;5.122;2023-04-25T13:30:39;5.97;;;2.50;;
67274;SDS011;55463;52.324;5.122;2023-04-25T13:33:04;4.43;;;1.90;;
67274;SDS011;55463;52.324;5.122;2023-04-25T13:35:33;4.55;;;1.65;;
67274;SDS011;55463;52.324;5.122;2023-04-25T13:38:00;7.25;;;1.90;;
67274;SDS011;55463;52.324;5.122;2023-04-25T13:40:25;6.68;;;1.80;;
67274;SDS011;55463;52.324;5.122;2023-04-25T13:42:52;6.75;;;2.00;;
67274;SDS011;55463;52.324;5.122;2023-04-25T13:45:17;10.30;;;2.10;;
67274;SDS011;55463;52.324;5.122;2023-04-25T13:47:43;9.95;;;2.00;;
67274;SDS011;55463;52.324;5.122;2023-04-25T13:50:09;7.75;;;1.75;;
67274;SDS011;55463;52.324;5.122;2023-04-25T13:52:34;5.30;;;1.65;;
67274;SDS011;55463;52.324;5.122;2023-04-25T13:55:00;10.50;;;2.25;;
67274;SDS011;55463;52.324;5.122;2023-04-25T13:57:28;10.23;;;1.90;;
67274;SDS011;55463;52.324;5.122;2023-04-25T13:59:53;4.43;;;1.30;;
67274;SDS011;55463;52.324;5.122;2023-04-25T14:02:18;4.82;;;1.85;;
67274;SDS011;55463;52.324;5.122;2023-04-25T14:04:46;8.57;;;1.70;;
67274;SDS011;55463;52.324;5.122;2023-04-25T14:07:12;3.95;;;2.10;;
67274;SDS011;55463;52.324;5.122;2023-04-25T14:09:37;6.05;;;1.60;;
67274;SDS011;55463;52.324;5.122;2023-04-25T14:12:03;8.60;;;1.85;;
67274;SDS011;55463;52.324;5.122;2023-04-25T14:14:28;4.38;;;1.73;;
67274;SDS011;55463;52.324;5.122;2023-04-25T14:16:53;5.65;;;1.63;;
67274;SDS011;55463;52.324;5.122;2023-04-25T14:19:19;3.63;;;1.60;;
67274;SDS011;55463;52.324;5.122;2023-04-25T14:21:45;4.78;;;1.52;;
67274;SDS011;55463;52.324;5.122;2023-04-25T14:24:11;6.03;;;1.65;;
67274;SDS011;55463;52.324;5.122;2023-04-25T14:26:37;4.63;;;1.75;;
67274;SDS011;55463;52.324;5.122;2023-04-25T14:29:03;3.45;;;1.70;;
67274;SDS011;55463;52.324;5.122;2023-04-25T14:31:30;5.03;;;1.70;;
67274;SDS011;55463;52.324;5.122;2023-04-25T14:33:56;4.80;;;1.65;;
67274;SDS011;55463;52.324;5.122;2023-04-25T14:36:21;7.43;;;1.83;;
67274;SDS011;55463;52.324;5.122;2023-04-25T14:38:46;5.30;;;1.85;;
67274;SDS011;55463;52.324;5.122;2023-04-25T14:41:12;11.90;;;2.25;;
67274;SDS011;55463;52.324;5.122;2023-04-25T14:43:37;5.97;;;1.90;;